sensor_id;sensor_type;location;lat;lon;timestamp;pressure;altitude;pressure_sealevel;temperature;humidity
52511;BME280;63918;51.700;17.998;2022-11-15T00:00:52;100201.36;;;3.28;100.00
52511;BME280;63918;51.700;17.998;2022-11-15T00:03:24;100197.77;;;3.26;100.00
52511;BME280;63918;51.700;17.998;2022-11-15T00:05:51;100199.09;;;3.21;100.00
52511;BME280;63918;51.700;17.998;2022-11-15T00:08:18;100197.07;;;3.22;100.00
52511;BME280;63918;51.700;17.998;2022-11-15T00:10:58;100196.55;;;3.15;100.00
52511;BME280;63918;51.700;17.998;2022-11-15T00:13:26;100196.39;;;3.12;100.00
52511;BME280;63918;51.700;17.998;2022-11-15T00:15:52;100189.77;;;3.09;100.00
52511;BME280;63918;51.700;17.998;2022-11-15T00:18:19;100183.27;;;3.11;100.00
52511;BME280;63918;51.700;17.998;2022-11-15T00:20:45;100181.35;;;3.05;100.00
52511;BME280;63918;51.700;17.998;2022-11-15T00:23:11;100179.11;;;3.03;100.00
52511;BME280;63918;51.700;17.998;2022-11-15T00:25:38;100181.59;;;2.98;100.00
52511;BME280;63918;51.700;17.998;2022-11-15T00:28:04;100180.33;;;2.99;100.00
52511;BME280;63918;51.700;17.998;2022-11-15T00:30:31;100177.23;;;2.99;100.00
52511;BME280;63918;51.700;17.998;2022-11-15T00:33:04;100172.48;;;2.94;100.00
52511;BME280;63918;51.700;17.998;2022-11-15T00:35:32;100165.65;;;2.91;100.00
52511;BME280;63918;51.700;17.998;2022-11-15T00:38:00;100160.05;;;2.95;100.00
52511;BME280;63918;51.700;17.998;2022-11-15T00:40:27;100158.21;;;2.86;100.00
52511;BME280;63918;51.700;17.998;2022-11-15T00:42:53;100160.80;;;2.86;100.00
52511;BME280;63918;51.700;17.998;2022-11-15T00:45:19;100156.59;;;2.89;100.00
52511;BME280;63918;51.700;17.998;2022-11-15T00:47:46;100156.88;;;2.82;100.00
52511;BME280;63918;51.700;17.998;2022-11-15T00:50:12;100156.85;;;2.78;100.00
52511;BME280;63918;51.700;17.998;2022-11-15T00:56:02;100149.30;;;2.60;100.00
52511;BME280;63918;51.700;17.998;2022-11-15T00:58:29;100141.64;;;2.59;100.00
52511;BME280;63918;51.700;17.998;2022-11-15T01:00:55;100144.36;;;2.62;100.00
52511;BME280;63918;51.700;17.998;2022-11-15T01:03:22;100140.25;;;2.63;100.00
52511;BME280;63918;51.700;17.998;2022-11-15T01:05:48;100138.02;;;2.59;100.00
52511;BME280;63918;51.700;17.998;2022-11-15T01:08:15;100133.39;;;2.63;100.00
52511;BME280;63918;51.700;17.998;2022-11-15T01:10:42;100134.30;;;2.63;100.00
52511;BME280;63918;51.700;17.998;2022-11-15T01:13:08;100128.10;;;2.60;100.00
52511;BME280;63918;51.700;17.998;2022-11-15T01:15:39;100130.58;;;2.67;100.00
52511;BME280;63918;51.700;17.998;2022-11-15T01:18:05;100122.52;;;2.76;100.00
52511;BME280;63918;51.700;17.998;2022-11-15T01:20:32;100122.23;;;2.78;100.00
52511;BME280;63918;51.700;17.998;2022-11-15T01:22:58;100124.87;;;2.82;100.00
52511;BME280;63918;51.700;17.998;2022-11-15T01:25:24;100121.94;;;2.89;100.00
52511;BME280;63918;51.700;17.998;2022-11-15T01:27:51;100119.02;;;2.95;100.00
52511;BME280;63918;51.700;17.998;2022-11-15T01:30:17;100116.41;;;2.96;100.00
52511;BME280;63918;51.700;17.998;2022-11-15T01:32:44;100115.05;;;2.95;100.00
52511;BME280;63918;51.700;17.998;2022-11-15T01:35:10;100110.25;;;2.97;100.00
52511;BME280;63918;51.700;17.998;2022-11-15T01:37:36;100103.72;;;2.97;100.00
52511;BME280;63918;51.700;17.998;2022-11-15T01:40:03;100100.30;;;2.97;100.00
52511;BME280;63918;51.700;17.998;2022-11-15T01:42:30;100096.44;;;2.96;100.00
52511;BME280;63918;51.700;17.998;2022-11-15T01:44:56;100088.52;;;2.95;100.00
52511;BME280;63918;51.700;17.998;2022-11-15T01:47:25;100090.38;;;2.93;100.00
52511;BME280;63918;51.700;17.998;2022-11-15T01:52:25;100082.67;;;2.97;100.00
52511;BME280;63918;51.700;17.998;2022-11-15T01:55:19;100078.34;;;2.92;100.00
52511;BME280;63918;51.700;17.998;2022-11-15T01:57:50;100074.82;;;2.96;100.00
52511;BME280;63918;51.700;17.998;2022-11-15T02:00:19;100081.36;;;3.05;100.00
52511;BME280;63918;51.700;17.998;2022-11-15T02:02:46;100079.58;;;3.09;100.00
52511;BME280;63918;51.700;17.998;2022-11-15T02:05:12;100081.35;;;3.11;100.00
52511;BME280;63918;51.700;17.998;2022-11-15T02:07:39;100082.65;;;3.09;100.00
52511;BME280;63918;51.700;17.998;2022-11-15T02:10:13;100080.02;;;3.09;100.00
52511;BME280;63918;51.700;17.998;2022-11-15T02:12:40;100080.73;;;3.17;100.00
52511;BME280;63918;51.700;17.998;2022-11-15T02:15:08;100073.06;;;3.13;100.00
52511;BME280;63918;51.700;17.998;2022-11-15T02:26:36;100071.90;;;2.90;100.00
52511;BME280;63918;51.700;17.998;2022-11-15T02:29:14;100079.33;;;2.92;100.00
52511;BME280;63918;51.700;17.998;2022-11-15T02:31:57;100079.15;;;2.97;100.00
52511;BME280;63918;51.700;17.998;2022-11-15T02:34:54;100075.98;;;2.93;100.00
52511;BME280;63918;51.700;17.998;2022-11-15T02:37:42;100074.64;;;2.91;100.00
52511;BME280;63918;51.700;17.998;2022-11-15T02:43:12;100071.19;;;2.90;100.00
52511;BME280;63918;51.700;17.998;2022-11-15T02:46:34;100069.66;;;2.95;100.00
52511;BME280;63918;51.700;17.998;2022-11-15T02:49:25;100062.12;;;2.99;100.00
52511;BME280;63918;51.700;17.998;2022-11-15T02:51:55;100061.42;;;2.99;100.00
52511;BME280;63918;51.700;17.998;2022-11-15T02:54:25;100058.12;;;2.99;100.00
52511;BME280;63918;51.700;17.998;2022-11-15T02:56:57;100051.20;;;2.95;100.00
52511;BME280;63918;51.700;17.998;2022-11-15T02:59:47;100056.27;;;2.92;100.00
52511;BME280;63918;51.700;17.998;2022-11-15T03:02:57;100050.32;;;2.99;100.00
52511;BME280;63918;51.700;17.998;2022-11-15T03:05:37;100044.41;;;2.92;100.00
52511;BME280;63918;51.700;17.998;2022-11-15T03:11:03;100041.30;;;3.02;100.00
52511;BME280;63918;51.700;17.998;2022-11-15T03:13:43;100040.63;;;2.93;100.00
52511;BME280;63918;51.700;17.998;2022-11-15T03:16:30;100039.65;;;2.93;100.00
52511;BME280;63918;51.700;17.998;2022-11-15T03:19:17;100040.98;;;2.97;100.00
52511;BME280;63918;51.700;17.998;2022-11-15T03:21:46;100033.73;;;3.01;100.00
52511;BME280;63918;51.700;17.998;2022-11-15T03:24:14;100030.93;;;2.96;100.00
52511;BME280;63918;51.700;17.998;2022-11-15T03:26:44;100020.95;;;2.93;100.00
52511;BME280;63918;51.700;17.998;2022-11-15T03:29:22;100028.17;;;3.00;100.00
52511;BME280;63918;51.700;17.998;2022-11-15T03:31:59;100025.17;;;2.93;100.00
52511;BME280;63918;51.700;17.998;2022-11-15T03:34:37;100014.91;;;2.81;100.00
52511;BME280;63918;51.700;17.998;2022-11-15T03:37:05;100002.91;;;2.75;100.00
52511;BME280;63918;51.700;17.998;2022-11-15T03:39:33;99999.67;;;2.74;100.00
52511;BME280;63918;51.700;17.998;2022-11-15T03:42:22;100001.36;;;2.84;100.00
52511;BME280;63918;51.700;17.998;2022-11-15T03:45:23;99997.44;;;2.81;100.00
52511;BME280;63918;51.700;17.998;2022-11-15T03:48:06;99997.21;;;2.69;100.00
52511;BME280;63918;51.700;17.998;2022-11-15T03:50:36;99998.63;;;2.68;100.00
52511;BME280;63918;51.700;17.998;2022-11-15T03:53:03;100002.87;;;2.68;100.00
52511;BME280;63918;51.700;17.998;2022-11-15T03:55:31;100003.23;;;2.72;100.00
52511;BME280;63918;51.700;17.998;2022-11-15T03:58:00;100004.71;;;2.71;100.00
52511;BME280;63918;51.700;17.998;2022-11-15T04:00:27;100005.65;;;2.65;100.00
52511;BME280;63918;51.700;17.998;2022-11-15T04:02:54;100008.14;;;2.66;100.00
52511;BME280;63918;51.700;17.998;2022-11-15T04:05:20;100011.83;;;2.57;100.00
52511;BME280;63918;51.700;17.998;2022-11-15T04:07:47;100012.67;;;2.45;100.00
52511;BME280;63918;51.700;17.998;2022-11-15T04:10:13;100011.70;;;2.34;100.00
52511;BME280;63918;51.700;17.998;2022-11-15T04:12:42;100010.92;;;2.20;100.00
52511;BME280;63918;51.700;17.998;2022-11-15T04:15:15;100009.65;;;2.10;100.00
52511;BME280;63918;51.700;17.998;2022-11-15T04:17:47;100005.84;;;1.99;100.00
52511;BME280;63918;51.700;17.998;2022-11-15T04:20:26;100007.06;;;1.91;100.00
52511;BME280;63918;51.700;17.998;2022-11-15T04:23:22;100005.23;;;1.87;100.00
52511;BME280;63918;51.700;17.998;2022-11-15T04:26:15;100005.14;;;1.88;100.00
52511;BME280;63918;51.700;17.998;2022-11-15T04:28:42;100002.64;;;1.96;100.00
52511;BME280;63918;51.700;17.998;2022-11-15T04:31:28;100000.80;;;1.97;100.00
52511;BME280;63918;51.700;17.998;2022-11-15T04:33:55;99997.90;;;1.85;100.00
52511;BME280;63918;51.700;17.998;2022-11-15T04:36:21;99991.79;;;1.88;100.00
52511;BME280;63918;51.700;17.998;2022-11-15T04:39:07;99993.49;;;1.84;100.00
52511;BME280;63918;51.700;17.998;2022-11-15T04:41:33;99990.86;;;1.76;100.00
52511;BME280;63918;51.700;17.998;2022-11-15T04:44:00;99985.52;;;1.71;100.00
52511;BME280;63918;51.700;17.998;2022-11-15T04:46:26;99982.47;;;1.63;100.00
52511;BME280;63918;51.700;17.998;2022-11-15T04:48:54;99981.81;;;1.60;100.00
52511;BME280;63918;51.700;17.998;2022-11-15T04:51:20;99977.19;;;1.66;100.00
52511;BME280;63918;51.700;17.998;2022-11-15T04:53:47;99977.97;;;1.67;100.00
52511;BME280;63918;51.700;17.998;2022-11-15T04:56:13;99978.92;;;1.57;100.00
52511;BME280;63918;51.700;17.998;2022-11-15T04:58:39;99973.58;;;1.47;100.00
52511;BME280;63918;51.700;17.998;2022-11-15T05:01:11;99970.34;;;1.43;100.00
52511;BME280;63918;51.700;17.998;2022-11-15T05:03:38;99967.18;;;1.39;100.00
52511;BME280;63918;51.700;17.998;2022-11-15T05:06:23;99967.75;;;1.33;100.00
52511;BME280;63918;51.700;17.998;2022-11-15T05:08:49;99959.27;;;1.27;100.00
52511;BME280;63918;51.700;17.998;2022-11-15T05:11:15;99954.48;;;1.27;100.00
52511;BME280;63918;51.700;17.998;2022-11-15T05:13:42;99958.55;;;1.25;100.00
52511;BME280;63918;51.700;17.998;2022-11-15T05:16:08;99957.09;;;1.23;100.00
52511;BME280;63918;51.700;17.998;2022-11-15T05:18:35;99962.38;;;1.22;100.00
52511;BME280;63918;51.700;17.998;2022-11-15T05:21:06;99955.27;;;1.24;100.00
52511;BME280;63918;51.700;17.998;2022-11-15T05:23:33;99954.20;;;1.28;100.00
52511;BME280;63918;51.700;17.998;2022-11-15T05:26:04;99953.48;;;1.27;100.00
52511;BME280;63918;51.700;17.998;2022-11-15T05:28:32;99953.16;;;1.28;100.00
52511;BME280;63918;51.700;17.998;2022-11-15T05:31:09;99950.77;;;1.34;100.00
52511;BME280;63918;51.700;17.998;2022-11-15T05:33:37;99947.84;;;1.32;100.00
52511;BME280;63918;51.700;17.998;2022-11-15T05:36:09;99947.98;;;1.24;100.00
52511;BME280;63918;51.700;17.998;2022-11-15T05:38:37;99946.69;;;1.20;100.00
52511;BME280;63918;51.700;17.998;2022-11-15T05:41:05;99938.09;;;1.22;100.00
52511;BME280;63918;51.700;17.998;2022-11-15T05:43:35;99939.27;;;1.20;100.00
52511;BME280;63918;51.700;17.998;2022-11-15T05:46:03;99938.33;;;1.19;100.00
52511;BME280;63918;51.700;17.998;2022-11-15T05:48:31;99936.19;;;1.13;100.00
52511;BME280;63918;51.700;17.998;2022-11-15T05:50:59;99939.09;;;1.08;100.00
52511;BME280;63918;51.700;17.998;2022-11-15T05:53:26;99942.98;;;1.02;100.00
52511;BME280;63918;51.700;17.998;2022-11-15T05:55:53;99946.95;;;1.08;100.00
52511;BME280;63918;51.700;17.998;2022-11-15T05:58:20;99946.98;;;1.11;100.00
52511;BME280;63918;51.700;17.998;2022-11-15T06:00:46;99944.02;;;1.11;100.00
52511;BME280;63918;51.700;17.998;2022-11-15T06:03:13;99946.41;;;1.25;100.00
52511;BME280;63918;51.700;17.998;2022-11-15T06:05:40;99949.14;;;1.21;100.00
52511;BME280;63918;51.700;17.998;2022-11-15T06:08:06;99949.45;;;1.23;100.00
52511;BME280;63918;51.700;17.998;2022-11-15T06:10:33;99944.77;;;1.18;100.00
52511;BME280;63918;51.700;17.998;2022-11-15T06:13:01;99944.23;;;1.15;100.00
52511;BME280;63918;51.700;17.998;2022-11-15T06:15:27;99943.09;;;1.17;100.00
52511;BME280;63918;51.700;17.998;2022-11-15T06:18:02;99948.44;;;1.17;100.00
52511;BME280;63918;51.700;17.998;2022-11-15T06:20:29;99960.59;;;1.19;100.00
52511;BME280;63918;51.700;17.998;2022-11-15T06:23:02;99966.93;;;1.30;100.00
52511;BME280;63918;51.700;17.998;2022-11-15T06:25:29;99954.17;;;1.42;100.00
52511;BME280;63918;51.700;17.998;2022-11-15T06:27:58;99953.98;;;1.44;100.00
52511;BME280;63918;51.700;17.998;2022-11-15T06:30:25;99953.63;;;1.52;100.00
52511;BME280;63918;51.700;17.998;2022-11-15T06:33:01;99964.80;;;1.67;100.00
52511;BME280;63918;51.700;17.998;2022-11-15T06:35:29;99960.54;;;1.62;100.00
52511;BME280;63918;51.700;17.998;2022-11-15T06:38:02;99957.64;;;1.68;100.00
52511;BME280;63918;51.700;17.998;2022-11-15T06:40:28;99954.73;;;1.71;100.00
52511;BME280;63918;51.700;17.998;2022-11-15T06:42:58;99960.25;;;1.79;100.00
52511;BME280;63918;51.700;17.998;2022-11-15T06:45:26;99970.70;;;1.96;100.00
52511;BME280;63918;51.700;17.998;2022-11-15T06:47:53;99970.12;;;2.02;100.00
52511;BME280;63918;51.700;17.998;2022-11-15T06:50:19;99962.91;;;1.95;100.00
52511;BME280;63918;51.700;17.998;2022-11-15T06:52:45;99959.30;;;2.02;100.00
52511;BME280;63918;51.700;17.998;2022-11-15T06:55:12;99960.52;;;2.27;100.00
52511;BME280;63918;51.700;17.998;2022-11-15T06:57:46;99967.23;;;2.53;100.00
52511;BME280;63918;51.700;17.998;2022-11-15T07:00:14;99968.45;;;2.57;100.00
52511;BME280;63918;51.700;17.998;2022-11-15T07:02:40;99968.65;;;2.72;100.00
52511;BME280;63918;51.700;17.998;2022-11-15T07:05:07;99965.81;;;2.82;100.00
52511;BME280;63918;51.700;17.998;2022-11-15T07:07:33;99961.57;;;2.89;100.00
52511;BME280;63918;51.700;17.998;2022-11-15T07:09:59;99963.30;;;2.95;100.00
52511;BME280;63918;51.700;17.998;2022-11-15T07:12:26;99958.40;;;2.99;100.00
52511;BME280;63918;51.700;17.998;2022-11-15T07:14:52;99956.52;;;3.21;100.00
52511;BME280;63918;51.700;17.998;2022-11-15T07:17:19;99966.84;;;3.36;100.00
52511;BME280;63918;51.700;17.998;2022-11-15T07:19:45;99971.58;;;3.68;100.00
52511;BME280;63918;51.700;17.998;2022-11-15T07:22:12;99963.27;;;3.97;100.00
52511;BME280;63918;51.700;17.998;2022-11-15T07:24:38;99964.97;;;4.11;100.00
52511;BME280;63918;51.700;17.998;2022-11-15T07:27:04;99961.63;;;4.00;100.00
52511;BME280;63918;51.700;17.998;2022-11-15T07:29:31;99967.04;;;4.21;100.00
52511;BME280;63918;51.700;17.998;2022-11-15T07:31:57;99973.45;;;4.25;100.00
52511;BME280;63918;51.700;17.998;2022-11-15T07:34:24;99976.46;;;4.23;100.00
52511;BME280;63918;51.700;17.998;2022-11-15T07:36:51;99971.56;;;4.58;100.00
52511;BME280;63918;51.700;17.998;2022-11-15T07:39:17;99967.44;;;4.63;100.00
52511;BME280;63918;51.700;17.998;2022-11-15T07:41:43;99977.61;;;4.66;100.00
52511;BME280;63918;51.700;17.998;2022-11-15T07:44:10;99971.43;;;4.60;100.00
52511;BME280;63918;51.700;17.998;2022-11-15T07:46:37;99963.27;;;4.64;100.00
52511;BME280;63918;51.700;17.998;2022-11-15T07:49:03;99961.65;;;4.54;100.00
52511;BME280;63918;51.700;17.998;2022-11-15T07:51:30;99965.27;;;4.51;100.00
52511;BME280;63918;51.700;17.998;2022-11-15T07:53:57;99966.92;;;5.54;100.00
52511;BME280;63918;51.700;17.998;2022-11-15T07:56:23;99964.36;;;5.60;100.00
52511;BME280;63918;51.700;17.998;2022-11-15T07:58:49;99964.67;;;5.64;100.00
52511;BME280;63918;51.700;17.998;2022-11-15T08:01:16;99958.52;;;5.58;100.00
52511;BME280;63918;51.700;17.998;2022-11-15T08:03:42;99961.37;;;6.08;100.00
52511;BME280;63918;51.700;17.998;2022-11-15T08:06:09;99952.94;;;6.17;100.00
52511;BME280;63918;51.700;17.998;2022-11-15T08:08:35;99953.13;;;6.08;100.00
52511;BME280;63918;51.700;17.998;2022-11-15T08:11:02;99948.96;;;6.58;100.00
52511;BME280;63918;51.700;17.998;2022-11-15T08:13:28;99946.37;;;6.66;100.00
52511;BME280;63918;51.700;17.998;2022-11-15T08:15:59;99941.55;;;6.63;100.00
52511;BME280;63918;51.700;17.998;2022-11-15T08:18:26;99950.36;;;6.65;100.00
52511;BME280;63918;51.700;17.998;2022-11-15T08:20:52;99953.48;;;7.50;100.00
52511;BME280;63918;51.700;17.998;2022-11-15T08:23:19;99952.15;;;6.47;100.00
52511;BME280;63918;51.700;17.998;2022-11-15T08:25:45;99946.93;;;6.97;100.00
52511;BME280;63918;51.700;17.998;2022-11-15T08:28:11;99942.41;;;7.35;100.00
52511;BME280;63918;51.700;17.998;2022-11-15T08:30:41;99951.96;;;7.90;100.00
52511;BME280;63918;51.700;17.998;2022-11-15T08:33:13;99939.73;;;6.28;100.00
52511;BME280;63918;51.700;17.998;2022-11-15T08:35:43;99935.66;;;7.00;100.00
52511;BME280;63918;51.700;17.998;2022-11-15T08:38:10;99936.88;;;7.18;100.00
52511;BME280;63918;51.700;17.998;2022-11-15T08:40:37;99933.85;;;6.65;100.00
52511;BME280;63918;51.700;17.998;2022-11-15T08:43:03;99933.05;;;6.80;100.00
52511;BME280;63918;51.700;17.998;2022-11-15T08:45:31;99935.61;;;7.02;100.00
52511;BME280;63918;51.700;17.998;2022-11-15T08:47:57;99929.96;;;6.30;100.00
52511;BME280;63918;51.700;17.998;2022-11-15T08:50:23;99925.98;;;6.12;100.00
52511;BME280;63918;51.700;17.998;2022-11-15T08:52:50;99925.02;;;6.14;100.00
52511;BME280;63918;51.700;17.998;2022-11-15T08:55:16;99923.15;;;6.01;100.00
52511;BME280;63918;51.700;17.998;2022-11-15T08:57:43;99918.81;;;5.95;100.00
52511;BME280;63918;51.700;17.998;2022-11-15T09:00:09;99911.90;;;5.43;100.00
52511;BME280;63918;51.700;17.998;2022-11-15T09:02:38;99910.19;;;5.58;100.00
52511;BME280;63918;51.700;17.998;2022-11-15T09:05:05;99912.47;;;6.59;100.00
52511;BME280;63918;51.700;17.998;2022-11-15T09:07:32;99910.36;;;6.42;100.00
52511;BME280;63918;51.700;17.998;2022-11-15T09:09:59;99909.84;;;6.22;100.00
52511;BME280;63918;51.700;17.998;2022-11-15T09:12:25;99904.71;;;6.53;100.00
52511;BME280;63918;51.700;17.998;2022-11-15T09:14:52;99911.05;;;6.97;100.00
52511;BME280;63918;51.700;17.998;2022-11-15T09:17:18;99911.05;;;8.73;100.00
52511;BME280;63918;51.700;17.998;2022-11-15T09:19:45;99911.88;;;10.00;100.00
52511;BME280;63918;51.700;17.998;2022-11-15T09:22:11;99912.54;;;9.97;96.96
52511;BME280;63918;51.700;17.998;2022-11-15T09:24:38;99912.73;;;10.11;95.09
52511;BME280;63918;51.700;17.998;2022-11-15T09:27:04;99901.85;;;10.03;98.40
52511;BME280;63918;51.700;17.998;2022-11-15T09:29:30;99900.32;;;9.99;96.81
52511;BME280;63918;51.700;17.998;2022-11-15T09:31:57;99893.80;;;11.25;97.00
52511;BME280;63918;51.700;17.998;2022-11-15T09:34:23;99893.38;;;11.40;94.47
52511;BME280;63918;51.700;17.998;2022-11-15T09:36:49;99896.34;;;11.93;91.71
52511;BME280;63918;51.700;17.998;2022-11-15T09:39:16;99892.89;;;10.46;87.59
52511;BME280;63918;51.700;17.998;2022-11-15T09:41:56;99897.63;;;9.91;93.77
52511;BME280;63918;51.700;17.998;2022-11-15T09:44:39;99895.81;;;11.28;91.59
52511;BME280;63918;51.700;17.998;2022-11-15T09:47:30;99888.81;;;10.91;83.28
52511;BME280;63918;51.700;17.998;2022-11-15T09:50:11;99888.44;;;11.71;83.32
52511;BME280;63918;51.700;17.998;2022-11-15T09:52:42;99892.54;;;10.72;84.93
52511;BME280;63918;51.700;17.998;2022-11-15T09:55:10;99892.23;;;11.75;82.38
52511;BME280;63918;51.700;17.998;2022-11-15T09:57:54;99884.41;;;12.08;78.92
52511;BME280;63918;51.700;17.998;2022-11-15T10:00:39;99886.36;;;11.48;81.74
52511;BME280;63918;51.700;17.998;2022-11-15T10:05:45;99871.04;;;10.68;86.20
52511;BME280;63918;51.700;17.998;2022-11-15T10:11:00;99861.64;;;11.63;80.78
52511;BME280;63918;51.700;17.998;2022-11-15T10:13:34;99851.02;;;11.27;81.52
52511;BME280;63918;51.700;17.998;2022-11-15T10:18:57;99856.73;;;11.20;80.63
52511;BME280;63918;51.700;17.998;2022-11-15T10:24:45;99851.21;;;12.01;79.15
52511;BME280;63918;51.700;17.998;2022-11-15T10:27:16;99855.27;;;11.86;79.77
52511;BME280;63918;51.700;17.998;2022-11-15T10:29:45;99851.09;;;11.37;80.47
52511;BME280;63918;51.700;17.998;2022-11-15T10:32:14;99840.52;;;12.43;75.75
52511;BME280;63918;51.700;17.998;2022-11-15T10:34:41;99841.95;;;12.57;75.33
52511;BME280;63918;51.700;17.998;2022-11-15T10:37:08;99846.86;;;13.25;72.08
52511;BME280;63918;51.700;17.998;2022-11-15T10:39:35;99846.41;;;13.70;70.40
52511;BME280;63918;51.700;17.998;2022-11-15T10:42:25;99839.58;;;15.25;64.96
52511;BME280;63918;51.700;17.998;2022-11-15T10:44:52;99839.41;;;14.93;65.63
52511;BME280;63918;51.700;17.998;2022-11-15T10:47:23;99837.95;;;16.07;61.55
52511;BME280;63918;51.700;17.998;2022-11-15T10:49:57;99827.44;;;16.10;61.92
52511;BME280;63918;51.700;17.998;2022-11-15T10:52:24;99823.86;;;16.68;61.12
52511;BME280;63918;51.700;17.998;2022-11-15T10:54:56;99813.60;;;16.66;59.29
52511;BME280;63918;51.700;17.998;2022-11-15T10:57:27;99810.36;;;16.82;58.28
52511;BME280;63918;51.700;17.998;2022-11-15T10:59:57;99812.81;;;16.48;60.05
52511;BME280;63918;51.700;17.998;2022-11-15T11:04:55;99809.67;;;14.16;69.01
52511;BME280;63918;51.700;17.998;2022-11-15T11:07:33;99803.30;;;16.12;63.27
52511;BME280;63918;51.700;17.998;2022-11-15T11:12:32;99809.45;;;14.67;66.72
52511;BME280;63918;51.700;17.998;2022-11-15T11:15:00;99803.20;;;14.84;66.17
52511;BME280;63918;51.700;17.998;2022-11-15T11:20:07;99807.92;;;17.44;59.58
52511;BME280;63918;51.700;17.998;2022-11-15T11:22:59;99797.98;;;17.27;57.01
52511;BME280;63918;51.700;17.998;2022-11-15T11:25:43;99793.88;;;18.30;54.92
52511;BME280;63918;51.700;17.998;2022-11-15T11:28:31;99792.18;;;17.99;55.02
52511;BME280;63918;51.700;17.998;2022-11-15T11:31:16;99787.48;;;19.04;52.76
52511;BME280;63918;51.700;17.998;2022-11-15T11:36:29;99771.34;;;19.33;52.58
52511;BME280;63918;51.700;17.998;2022-11-15T11:39:56;99760.19;;;19.57;52.43
52511;BME280;63918;51.700;17.998;2022-11-15T11:42:15;99757.05;;;19.62;51.21
52511;BME280;63918;51.700;17.998;2022-11-15T11:44:59;99755.73;;;19.34;52.90
52511;BME280;63918;51.700;17.998;2022-11-15T11:47:34;99755.83;;;19.85;50.62
52511;BME280;63918;51.700;17.998;2022-11-15T11:50:13;99750.75;;;19.78;50.10
52511;BME280;63918;51.700;17.998;2022-11-15T11:55:41;99754.11;;;17.52;56.18
52511;BME280;63918;51.700;17.998;2022-11-15T11:58:14;99746.36;;;16.63;56.38
52511;BME280;63918;51.700;17.998;2022-11-15T12:01:02;99738.05;;;16.42;58.01
52511;BME280;63918;51.700;17.998;2022-11-15T12:04:12;99738.92;;;17.36;56.45
52511;BME280;63918;51.700;17.998;2022-11-15T12:06:51;99735.55;;;19.60;51.28
52511;BME280;63918;51.700;17.998;2022-11-15T12:09:32;99732.98;;;20.55;48.57
52511;BME280;63918;51.700;17.998;2022-11-15T12:12:13;99729.96;;;20.24;49.16
52511;BME280;63918;51.700;17.998;2022-11-15T12:14:51;99727.98;;;19.23;50.17
52511;BME280;63918;51.700;17.998;2022-11-15T12:17:23;99726.12;;;19.28;51.01
52511;BME280;63918;51.700;17.998;2022-11-15T12:19:52;99726.77;;;17.55;53.14
52511;BME280;63918;51.700;17.998;2022-11-15T12:22:25;99726.11;;;17.64;54.94
52511;BME280;63918;51.700;17.998;2022-11-15T12:25:00;99727.02;;;18.55;53.01
52511;BME280;63918;51.700;17.998;2022-11-15T12:27:37;99733.83;;;19.23;52.07
52511;BME280;63918;51.700;17.998;2022-11-15T12:30:12;99726.76;;;18.91;52.71
52511;BME280;63918;51.700;17.998;2022-11-15T12:32:50;99726.06;;;18.92;51.71
52511;BME280;63918;51.700;17.998;2022-11-15T12:35:35;99717.70;;;19.08;52.15
52511;BME280;63918;51.700;17.998;2022-11-15T12:38:04;99708.15;;;18.63;51.84
52511;BME280;63918;51.700;17.998;2022-11-15T12:40:33;99704.45;;;18.43;52.63
52511;BME280;63918;51.700;17.998;2022-11-15T12:45:34;99694.13;;;18.69;52.94
52511;BME280;63918;51.700;17.998;2022-11-15T12:50:56;99693.84;;;18.53;52.00
52511;BME280;63918;51.700;17.998;2022-11-15T12:58:51;99684.73;;;18.97;51.15
52511;BME280;63918;51.700;17.998;2022-11-15T13:06:57;99666.92;;;18.12;53.82
52511;BME280;63918;51.700;17.998;2022-11-15T13:17:55;99670.52;;;18.17;53.50
52511;BME280;63918;51.700;17.998;2022-11-15T13:20:29;99667.17;;;18.07;53.86
52511;BME280;63918;51.700;17.998;2022-11-15T13:23:07;99661.15;;;18.03;54.24
52511;BME280;63918;51.700;17.998;2022-11-15T13:26:10;99658.77;;;18.19;54.34
52511;BME280;63918;51.700;17.998;2022-11-15T13:28:47;99667.27;;;18.15;54.31
52511;BME280;63918;51.700;17.998;2022-11-15T13:31:28;99662.89;;;18.19;54.86
52511;BME280;63918;51.700;17.998;2022-11-15T13:34:26;99666.05;;;17.90;54.60
52511;BME280;63918;51.700;17.998;2022-11-15T13:36:54;99659.66;;;17.68;55.90
52511;BME280;63918;51.700;17.998;2022-11-15T13:39:30;99662.87;;;17.50;56.96
52511;BME280;63918;51.700;17.998;2022-11-15T13:41:58;99659.21;;;16.88;58.91
52511;BME280;63918;51.700;17.998;2022-11-15T13:44:30;99655.00;;;16.73;59.85
52511;BME280;63918;51.700;17.998;2022-11-15T13:47:15;99653.64;;;16.62;60.15
52511;BME280;63918;51.700;17.998;2022-11-15T13:49:42;99652.48;;;16.04;61.78
52511;BME280;63918;51.700;17.998;2022-11-15T13:52:12;99649.07;;;15.89;62.31
52511;BME280;63918;51.700;17.998;2022-11-15T13:54:44;99645.85;;;15.89;62.70
52511;BME280;63918;51.700;17.998;2022-11-15T13:57:21;99638.42;;;15.58;63.84
52511;BME280;63918;51.700;17.998;2022-11-15T13:59:53;99634.64;;;15.49;64.39
52511;BME280;63918;51.700;17.998;2022-11-15T14:02:26;99633.33;;;15.32;65.44
52511;BME280;63918;51.700;17.998;2022-11-15T14:04:56;99635.85;;;15.22;65.32
52511;BME280;63918;51.700;17.998;2022-11-15T14:07:26;99642.23;;;15.06;65.70
52511;BME280;63918;51.700;17.998;2022-11-15T14:09:54;99641.59;;;15.02;65.75
52511;BME280;63918;51.700;17.998;2022-11-15T14:12:34;99640.55;;;14.70;66.10
52511;BME280;63918;51.700;17.998;2022-11-15T14:15:18;99638.43;;;14.24;68.77
52511;BME280;63918;51.700;17.998;2022-11-15T14:17:45;99639.96;;;14.08;70.07
52511;BME280;63918;51.700;17.998;2022-11-15T14:20:28;99641.34;;;13.79;71.23